Time;durP1;ratioP1;P1;durP2;ratioP2;P2;SDS_P1;SDS_P2;PMS_P1;PMS_P2;Temp;Humidity;BMP_temperature;BMP_pressure;BME280_temperature;BME280_humidity;BME280_pressure;Samples;Min_cycle;Max_cycle;Signal;HPM_P1;HPM_P2
2023/05/19 00:01:36;;;;;;;3.92;1.77;;;;;;;10.26;85.17;101159.69;5118602;28;20052;-87
2023/05/19 00:04:07;;;;;;;7.78;1.83;;;;;;;10.21;85.38;101149.25;5057398;28;20045;-86
2023/05/19 00:06:40;;;;;;;7.10;2.10;;;;;;;10.27;85.63;101151.69;5059152;28;20156;-85
2023/05/19 00:09:20;;;;;;;8.55;2.05;;;;;;;10.26;85.34;101155.25;5043204;28;20041;-85
2023/05/19 00:11:55;;;;;;;6.00;1.88;;;;;;;10.02;85.38;101125.16;5045722;28;20048;-84
2023/05/19 00:14:25;;;;;;;5.60;1.80;;;;;;;10.16;85.94;101149.38;5042535;28;20126;-86
2023/05/19 00:16:57;;;;;;;5.20;1.80;;;;;;;10.11;85.46;101151.31;5026172;28;20049;-85
2023/05/19 00:19:32;;;;;;;8.20;2.10;;;;;;;10.12;86.21;101147.75;5043282;28;20051;-85
2023/05/19 00:22:01;;;;;;;3.92;2.00;;;;;;;10.07;86.45;101160.25;5027848;28;20073;-85
2023/05/19 00:24:35;;;;;;;4.05;1.90;;;;;;;10.07;87.21;101154.94;5057484;28;20101;-85
2023/05/19 00:27:05;;;;;;;10.23;2.00;;;;;;;9.99;87.00;101142.91;5025858;28;20061;-85
2023/05/19 00:29:36;;;;;;;7.80;2.05;;;;;;;9.98;86.78;101143.81;5109784;28;20039;-87
2023/05/19 00:32:20;;;;;;;6.93;1.80;;;;;;;9.76;86.93;101104.81;5104558;28;20098;-85
2023/05/19 00:34:50;;;;;;;5.90;2.20;;;;;;;9.98;88.11;101143.81;5119336;28;20070;-83
2023/05/19 00:37:17;;;;;;;3.53;1.80;;;;;;;10.03;87.30;101163.94;5118457;28;20032;-85
2023/05/19 00:39:52;;;;;;;5.68;2.22;;;;;;;9.98;87.87;101149.09;5117516;28;20072;-86
2023/05/19 00:42:20;;;;;;;6.25;1.73;;;;;;;9.95;88.68;101149.19;5117982;28;20036;-85
2023/05/19 00:44:46;;;;;;;11.27;2.30;;;;;;;9.99;88.26;101150.84;5118483;28;20051;-85
2023/05/19 00:47:16;;;;;;;4.68;1.83;;;;;;;9.83;88.05;101121.38;5101325;28;20036;-86
2023/05/19 00:49:50;;;;;;;6.65;1.77;;;;;;;9.82;88.74;101124.94;5118087;28;20066;-86
2023/05/19 00:52:19;;;;;;;5.68;1.98;;;;;;;9.91;88.26;101135.22;5096086;28;20055;-86
2023/05/19 00:54:48;;;;;;;4.18;1.70;;;;;;;9.88;88.56;101127.38;5091856;28;20396;-86
2023/05/19 00:57:17;;;;;;;3.10;1.80;;;;;;;9.60;89.26;101089.53;5088116;28;20048;-86
2023/05/19 00:59:46;;;;;;;8.15;2.05;;;;;;;9.83;89.90;101134.59;5085312;28;20143;-86
2023/05/19 01:02:24;;;;;;;5.97;1.92;;;;;;;9.73;90.98;101134.03;5103073;28;20067;-86
2023/05/19 01:04:56;;;;;;;5.22;1.90;;;;;;;9.76;90.79;101139.22;5091046;28;20078;-86
2023/05/19 01:07:24;;;;;;;3.87;2.03;;;;;;;9.74;90.57;101140.19;5108948;28;20063;-86
2023/05/19 01:09:52;;;;;;;6.13;1.90;;;;;;;9.68;91.49;101132.44;5102236;28;20039;-85
2023/05/19 01:12:19;;;;;;;8.73;2.00;;;;;;;9.69;92.95;101132.41;5103144;28;20070;-86
2023/05/19 01:14:46;;;;;;;6.30;1.80;;;;;;;9.67;92.80;101125.41;5105299;28;20048;-85
2023/05/19 01:17:50;;;;;;;5.80;1.67;;;;;;;9.69;91.93;101123.59;5108200;28;20089;-85
2023/05/19 01:20:26;;;;;;;5.45;1.98;;;;;;;9.57;92.90;101108.13;5105789;28;20101;-85
2023/05/19 01:23:27;;;;;;;6.05;2.10;;;;;;;9.65;92.91;101121.97;5101695;28;20048;-86
2023/05/19 01:26:22;;;;;;;5.63;1.98;;;;;;;9.55;93.06;101115.22;5100739;28;20051;-86
2023/05/19 01:29:07;;;;;;;5.95;1.90;;;;;;;9.57;93.54;101127.50;5101382;28;20042;-86
2023/05/19 01:31:45;;;;;;;6.60;1.98;;;;;;;9.54;93.69;101124.09;5102966;28;20076;-87
2023/05/19 01:34:26;;;;;;;3.95;1.80;;;;;;;9.42;93.96;101123.56;5101562;28;20426;-87
2023/05/19 01:36:54;;;;;;;5.50;2.22;;;;;;;9.32;94.76;101100.94;5084398;28;20477;-87
2023/05/19 01:39:28;;;;;;;5.78;2.42;;;;;;;9.25;95.06;101088.84;5085937;28;20047;-87
2023/05/19 01:41:59;;;;;;;7.22;2.00;;;;;;;9.39;95.53;101118.34;5102292;28;20346;-87
2023/05/19 01:44:26;;;;;;;7.30;2.40;;;;;;;9.40;95.48;101113.94;5103334;28;20044;-85
2023/05/19 01:46:58;;;;;;;5.70;2.10;;;;;;;9.43;96.25;101122.66;5102498;28;20043;-86
2023/05/19 01:49:24;;;;;;;5.97;2.00;;;;;;;9.39;95.89;101118.34;5101189;28;20095;-85
2023/05/19 01:51:51;;;;;;;5.03;1.85;;;;;;;9.37;97.33;101129.88;5102824;28;20047;-85
2023/05/19 01:54:24;;;;;;;6.07;2.10;;;;;;;9.31;97.91;101119.47;5103972;28;20044;-85
2023/05/19 01:57:02;;;;;;;9.38;2.28;;;;;;;9.13;97.56;101103.25;5103612;28;20065;-85
2023/05/19 01:59:56;;;;;;;5.95;2.35;;;;;;;9.27;98.29;101124.03;5105130;28;20207;-85
2023/05/19 02:02:57;;;;;;;4.85;2.15;;;;;;;9.24;98.54;101139.97;5101868;28;20138;-86
2023/05/19 02:05:53;;;;;;;5.60;2.10;;;;;;;9.09;98.89;101111.34;5061604;28;20044;-85
2023/05/19 02:08:50;;;;;;;4.28;1.85;;;;;;;9.03;97.93;101096.53;5101138;28;20503;-85
2023/05/19 02:11:33;;;;;;;5.60;2.13;;;;;;;9.18;99.01;101136.63;5099456;28;20459;-85
2023/05/19 02:14:30;;;;;;;9.57;2.42;;;;;;;8.99;99.33;101109.88;5100369;28;20134;-86
2023/05/19 02:16:59;;;;;;;6.05;2.13;;;;;;;8.91;100.00;101098.66;5099912;28;20048;-86
2023/05/19 02:19:33;;;;;;;5.97;2.05;;;;;;;8.97;100.00;101112.53;5100921;28;20488;-86
2023/05/19 02:22:00;;;;;;;8.60;2.15;;;;;;;9.03;100.00;101133.53;5100654;28;20090;-86
2023/05/19 02:24:26;;;;;;;5.88;2.10;;;;;;;8.96;100.00;101123.19;5100570;28;20063;-84
2023/05/19 02:26:56;;;;;;;7.72;2.20;;;;;;;8.79;100.00;101105.19;5105453;28;20104;-85
2023/05/19 02:29:22;;;;;;;6.68;1.95;;;;;;;8.94;100.00;101131.16;5090796;28;20062;-85
2023/05/19 02:31:50;;;;;;;8.35;2.13;;;;;;;8.79;100.00;101105.19;5110797;28;20073;-85
2023/05/19 02:34:18;;;;;;;7.82;2.28;;;;;;;8.76;100.00;101089.41;5085088;28;20058;-85
2023/05/19 02:36:48;;;;;;;9.32;2.15;;;;;;;8.92;100.00;101127.69;5102208;28;20044;-85
2023/05/19 02:39:15;;;;;;;7.60;2.73;;;;;;;8.93;100.00;101124.13;5086185;28;20043;-86
2023/05/19 02:41:43;;;;;;;5.63;2.17;;;;;;;8.86;100.00;101122.56;5104180;28;20127;-85
2023/05/19 02:44:12;;;;;;;7.50;2.10;;;;;;;8.83;100.00;101116.50;5104404;28;20052;-85
2023/05/19 02:46:40;;;;;;;5.90;2.20;;;;;;;8.75;100.00;101109.66;5103016;28;20039;-85
2023/05/19 02:49:08;;;;;;;5.47;2.20;;;;;;;8.55;100.00;101080.31;5102095;28;20052;-85
2023/05/19 02:51:45;;;;;;;5.32;2.58;;;;;;;8.75;100.00;101114.94;5099817;28;20356;-85
2023/05/19 02:54:14;;;;;;;5.00;1.98;;;;;;;8.74;100.00;101112.34;5099214;28;20044;-86
2023/05/19 02:56:42;;;;;;;9.13;2.20;;;;;;;8.72;100.00;101107.13;5100060;28;20036;-85
2023/05/19 02:59:10;;;;;;;6.97;2.05;;;;;;;8.74;100.00;101104.44;5099439;28;20067;-85
2023/05/19 03:05:20;;;;;;;6.88;2.17;;;;;;;8.83;100.00;101114.72;5101175;28;20069;-85
2023/05/19 03:07:48;;;;;;;5.90;1.77;;;;;;;8.87;100.00;101116.38;5084625;28;20052;-86
2023/05/19 03:10:18;;;;;;;5.38;1.80;;;;;;;8.78;100.00;101109.59;5107908;28;20517;-86
2023/05/19 03:12:44;;;;;;;5.63;1.90;;;;;;;8.84;100.00;101111.16;5111173;28;20096;-86
2023/05/19 03:15:13;;;;;;;5.82;2.28;;;;;;;8.84;100.00;101113.81;5111597;28;20044;-87
2023/05/19 03:17:41;;;;;;;7.83;2.50;;;;;;;8.60;100.00;101081.06;5114131;28;20066;-85
2023/05/19 03:20:10;;;;;;;4.78;2.00;;;;;;;8.62;100.00;101089.81;5114766;28;20066;-85
2023/05/19 03:31:40;;;;;;;7.50;2.05;;;;;;;8.64;100.00;101127.59;5054880;23;20039;-83
2023/05/19 03:34:14;;;;;;;5.20;2.10;;;;;;;8.62;100.00;101118.84;4961593;28;20082;-85
2023/05/19 03:36:50;;;;;;;5.20;1.95;;;;;;;8.66;100.00;101123.13;4967535;28;20480;-85
2023/05/19 03:39:18;;;;;;;6.90;2.30;;;;;;;8.67;100.00;101127.50;4965576;28;20534;-86
2023/05/19 03:41:46;;;;;;;5.35;2.42;;;;;;;8.66;100.00;101120.47;4949093;28;20133;-85
2023/05/19 03:44:27;;;;;;;7.20;2.42;;;;;;;8.41;100.00;101093.03;4966887;28;20515;-86
2023/05/19 03:46:54;;;;;;;7.82;2.30;;;;;;;8.58;100.00;101118.97;4966184;28;20159;-87
2023/05/19 03:49:23;;;;;;;5.70;2.30;;;;;;;8.58;100.00;101119.84;4969732;28;20535;-86
2023/05/19 03:51:51;;;;;;;8.75;2.30;;;;;;;8.68;100.00;101126.56;4967758;28;20050;-86
2023/05/19 03:54:19;;;;;;;7.28;2.35;;;;;;;8.69;100.00;101128.31;4983139;28;20468;-86
2023/05/19 03:56:47;;;;;;;5.90;2.22;;;;;;;8.74;100.00;101122.91;4966253;28;20057;-86
2023/05/19 03:59:16;;;;;;;8.27;2.30;;;;;;;8.72;100.00;101122.97;4965900;28;20121;-86
2023/05/19 04:01:43;;;;;;;7.22;2.20;;;;;;;8.70;100.00;101108.94;4949443;28;20047;-86
2023/05/19 04:04:10;;;;;;;5.63;2.33;;;;;;;8.71;100.00;101113.31;4966036;28;20046;-86
2023/05/19 04:06:37;;;;;;;8.48;2.33;;;;;;;8.85;100.00;101117.31;4966437;28;20047;-86
2023/05/19 04:09:18;;;;;;;5.78;2.40;;;;;;;8.78;100.00;101109.59;4968593;28;20082;-88
2023/05/19 04:11:47;;;;;;;6.53;1.85;;;;;;;8.92;100.00;101121.53;4966988;28;20059;-88
2023/05/19 04:14:16;;;;;;;7.75;2.33;;;;;;;8.85;100.00;101107.63;4984736;28;20134;-87
2023/05/19 04:16:44;;;;;;;4.50;2.08;;;;;;;8.94;100.00;101115.31;4985247;28;20059;-87
2023/05/19 04:19:11;;;;;;;6.13;2.45;;;;;;;8.98;100.00;101122.22;4986475;28;20042;-87
2023/05/19 04:21:39;;;;;;;5.25;2.08;;;;;;;8.89;100.00;101113.69;4986077;28;20060;-87
2023/05/19 04:24:07;;;;;;;5.57;2.20;;;;;;;8.88;100.00;101112.81;4967481;28;20050;-86
2023/05/19 04:26:34;;;;;;;5.75;2.28;;;;;;;9.01;100.00;101126.53;4978275;28;20062;-85
2023/05/19 04:29:07;;;;;;;9.68;2.42;;;;;;;8.90;100.00;101112.78;4974520;28;20113;-87
2023/05/19 04:31:35;;;;;;;4.13;1.90;;;;;;;8.96;100.00;101128.47;4968258;28;20043;-87
2023/05/19 04:34:08;;;;;;;5.88;2.60;;;;;;;8.94;100.00;101103.88;4952883;28;20059;-87
2023/05/19 04:36:36;;;;;;;6.07;2.60;;;;;;;9.01;100.00;101126.53;4947257;29;20051;-87
2023/05/19 04:39:11;;;;;;;5.60;2.35;;;;;;;9.04;100.00;101132.59;4948307;29;20129;-88
2023/05/19 04:41:43;;;;;;;4.65;2.17;;;;;;;9.05;100.00;101125.56;4933920;29;20051;-88
2023/05/19 04:44:16;;;;;;;5.30;2.28;;;;;;;9.06;100.00;101130.78;4948074;29;20051;-85
2023/05/19 04:46:45;;;;;;;4.40;2.20;;;;;;;9.06;100.00;101136.06;4947511;29;20055;-87
2023/05/19 04:49:13;;;;;;;8.00;2.97;;;;;;;9.04;100.00;101140.53;4947746;29;20051;-87
2023/05/19 04:51:49;;;;;;;7.65;2.15;;;;;;;9.15;100.00;101145.50;4947967;29;20044;-86
2023/05/19 04:54:25;;;;;;;5.50;2.38;;;;;;;9.13;100.00;101137.63;4948228;29;20043;-87
2023/05/19 04:56:54;;;;;;;11.32;2.42;;;;;;;9.23;100.00;101142.66;4963208;28;20043;-87
2023/05/19 04:59:21;;;;;;;8.60;2.33;;;;;;;9.10;100.00;101129.81;4946198;29;20047;-87
2023/05/19 05:01:47;;;;;;;12.00;2.70;;;;;;;9.28;100.00;101146.91;4947096;29;20066;-87
2023/05/19 05:04:20;;;;;;;7.13;2.25;;;;;;;9.21;100.00;101140.03;4950528;29;20082;-86
2023/05/19 05:06:50;;;;;;;12.05;2.65;;;;;;;9.25;100.00;101136.41;4947117;29;20436;-86
2023/05/19 05:09:19;;;;;;;7.50;2.33;;;;;;;9.35;100.00;101148.44;4933955;29;20134;-86
2023/05/19 05:11:47;;;;;;;9.20;2.80;;;;;;;9.41;100.00;101140.31;4954244;29;20043;-85
2023/05/19 05:14:15;;;;;;;7.97;2.58;;;;;;;9.47;100.00;101152.47;4952663;29;20130;-85
2023/05/19 05:16:42;;;;;;;6.35;2.08;;;;;;;9.53;100.00;101141.72;4947801;29;20049;-85
2023/05/19 05:19:12;;;;;;;7.30;2.53;;;;;;;9.49;100.00;101135.66;4964201;29;20043;-85
2023/05/19 05:21:40;;;;;;;7.47;2.67;;;;;;;9.60;100.00;101147.69;4946514;29;20094;-85
2023/05/19 05:24:10;;;;;;;;;;;;;;;9.63;100.00;101142.28;4963478;29;20050;-86
2023/05/19 05:26:39;;;;;;;5.50;2.20;;;;;;;9.66;100.00;101137.78;4946252;29;19973;-86
2023/05/19 05:29:16;;;;;;;5.93;2.25;;;;;;;9.68;100.00;101114.78;4948095;29;20047;-87
2023/05/19 05:31:44;;;;;;;7.93;2.72;;;;;;;9.92;100.00;101139.59;4946062;29;20551;-86
2023/05/19 05:34:12;;;;;;;8.82;3.08;;;;;;;10.01;100.00;101136.66;4945601;28;20062;-85
2023/05/19 05:36:40;;;;;;;6.38;2.55;;;;;;;10.15;98.50;101142.34;4945658;29;20047;-85
2023/05/19 05:39:17;;;;;;;6.10;2.10;;;;;;;10.21;97.89;101133.38;4945250;29;20138;-85
2023/05/19 05:41:44;;;;;;;6.80;2.50;;;;;;;10.17;95.95;101115.84;4930511;29;20145;-84
2023/05/19 05:44:10;;;;;;;11.52;2.50;;;;;;;10.37;96.29;101136.38;4930756;29;20043;-84
2023/05/19 05:46:37;;;;;;;6.60;2.33;;;;;;;10.53;95.19;101137.56;4945489;29;20433;-84
2023/05/19 05:49:06;;;;;;;6.95;2.67;;;;;;;10.59;93.57;101131.19;4945724;29;20130;-85
2023/05/19 05:51:34;;;;;;;7.75;2.72;;;;;;;10.56;93.00;101126.84;4928991;29;20134;-84
2023/05/19 05:54:22;;;;;;;11.40;2.20;;;;;;;10.74;92.75;101139.44;4949662;29;20102;-83
2023/05/19 05:56:53;;;;;;;6.75;2.03;;;;;;;10.78;89.14;101124.31;4945500;29;20047;-84
2023/05/19 05:59:24;;;;;;;12.05;3.33;;;;;;;10.89;89.89;101124.78;4946046;29;20134;-84
2023/05/19 06:02:06;;;;;;;10.80;2.50;;;;;;;10.91;89.14;101120.28;4963011;29;20473;-85
2023/05/19 06:04:33;;;;;;;5.28;2.03;;;;;;;11.01;88.65;101115.53;4962518;29;20050;-84
2023/05/19 06:07:05;;;;;;;5.43;2.15;;;;;;;11.33;86.30;101141.69;4947209;29;20051;-84
2023/05/19 06:09:32;;;;;;;6.30;2.45;;;;;;;11.53;84.88;101131.16;4961123;28;20095;-84
2023/05/19 06:12:02;;;;;;;9.90;2.55;;;;;;;11.70;84.47;101129.63;4945158;29;20078;-83
2023/05/19 06:14:29;;;;;;;7.18;2.35;;;;;;;11.93;83.91;101121.66;4943450;29;20078;-84
2023/05/19 06:16:59;;;;;;;4.68;1.85;;;;;;;12.19;79.79;101121.41;4946234;29;20047;-86
2023/05/19 06:19:27;;;;;;;5.78;2.13;;;;;;;12.50;77.37;101123.63;4945047;29;20369;-85
2023/05/19 06:21:54;;;;;;;6.20;2.22;;;;;;;12.76;74.53;101109.19;4946259;29;20054;-83
2023/05/19 06:24:29;;;;;;;8.23;2.55;;;;;;;13.01;74.68;101108.97;4950571;29;20081;-82
2023/05/19 06:26:56;;;;;;;5.13;1.90;;;;;;;13.43;72.52;101105.25;4954723;29;20078;-84
2023/05/19 06:29:27;;;;;;;5.82;1.92;;;;;;;13.53;71.44;101083.50;4946669;29;20082;-84
2023/05/19 06:31:55;;;;;;;8.40;2.20;;;;;;;13.96;68.13;101106.19;4945595;29;20098;-85
2023/05/19 06:34:25;;;;;;;4.38;2.22;;;;;;;14.06;67.88;101101.25;4945268;28;20062;-84
2023/05/19 06:36:53;;;;;;;7.50;2.03;;;;;;;14.41;67.86;101126.16;4943714;29;20114;-84
2023/05/19 06:39:37;;;;;;;8.52;1.70;;;;;;;14.58;63.87;101118.16;4934584;29;20156;-85
2023/05/19 06:42:05;;;;;;;4.55;1.73;;;;;;;14.71;60.73;101111.22;4944898;29;20047;-85
2023/05/19 06:44:34;;;;;;;5.13;1.90;;;;;;;14.74;59.65;101131.53;4943933;29;20448;-85
2023/05/19 06:47:00;;;;;;;7.75;2.22;;;;;;;14.60;60.13;101120.75;4944675;29;20053;-84
2023/05/19 06:49:29;;;;;;;5.85;1.83;;;;;;;14.54;60.44;101124.56;4944439;29;20057;-84
2023/05/19 06:51:58;;;;;;;6.43;2.08;;;;;;;14.69;62.12;101138.91;4929984;29;20350;-84
2023/05/19 06:54:34;;;;;;;6.10;2.20;;;;;;;14.64;59.64;101132.94;4929350;29;20075;-84
2023/05/19 06:57:17;;;;;;;5.18;2.28;;;;;;;14.51;61.17;101121.19;4946215;29;20480;-84
2023/05/19 06:59:45;;;;;;;7.85;2.17;;;;;;;14.31;60.34;101088.44;4962613;29;20047;-84
2023/05/19 07:02:15;;;;;;;8.63;2.00;;;;;;;14.49;60.08;101107.09;4944283;29;20060;-85
2023/05/19 07:04:42;;;;;;;5.65;2.08;;;;;;;14.68;61.12;101103.38;4946646;29;20152;-84
2023/05/19 07:07:31;;;;;;;5.75;1.90;;;;;;;15.07;58.16;101112.88;4935572;29;20130;-86
2023/05/19 07:10:04;;;;;;;5.43;1.70;;;;;;;15.21;59.28;101120.13;4950247;29;20047;-84
2023/05/19 07:12:50;;;;;;;7.60;1.92;;;;;;;15.33;59.81;101104.31;4955802;29;20071;-83
2023/05/19 07:15:21;;;;;;;5.10;1.98;;;;;;;15.49;56.57;101103.44;4969858;29;20043;-84
2023/05/19 07:18:30;;;;;;;10.98;2.60;;;;;;;15.44;57.56;101106.38;4958340;29;20053;-84
2023/05/19 07:24:40;;;;;;;10.80;2.35;;;;;;;15.71;54.58;101096.84;4969369;29;20081;-84
2023/05/19 07:27:13;;;;;;;4.60;2.20;;;;;;;15.44;54.44;101082.34;4954950;29;20051;-84
2023/05/19 07:30:27;;;;;;;10.40;2.15;;;;;;;15.37;54.32;101094.31;4959173;29;20058;-84
2023/05/19 07:39:46;;;;;;;7.05;1.88;;;;;;;15.49;54.55;101077.63;4907525;29;20067;-85
2023/05/19 07:42:28;;;;;;;7.47;2.53;;;;;;;15.62;53.52;101085.81;4956273;29;20050;-85
2023/05/19 07:45:02;;;;;;;8.68;1.95;;;;;;;15.25;54.27;101068.34;4959508;29;20135;-85
2023/05/19 07:47:40;;;;;;;4.90;2.00;;;;;;;14.93;56.09;101073.63;4978740;28;20062;-85
2023/05/19 07:53:56;;;;;;;4.97;2.15;;;;;;;15.28;56.24;101079.66;4968231;29;20058;-88
2023/05/19 07:56:40;;;;;;;7.10;1.92;;;;;;;15.52;56.11;101065.91;4960652;29;20058;-84
2023/05/19 07:59:27;;;;;;;3.63;1.90;;;;;;;16.01;56.47;101077.34;4966370;29;20091;-84
2023/05/19 08:01:59;;;;;;;5.93;1.67;;;;;;;16.55;57.12;101056.25;4956168;29;20051;-84
2023/05/19 08:04:32;;;;;;;4.72;1.73;;;;;;;17.09;52.58;101054.66;4972533;29;20472;-84
2023/05/19 08:07:13;;;;;;;5.47;1.83;;;;;;;17.33;50.25;101068.28;4951833;29;20043;-84
2023/05/19 08:09:39;;;;;;;5.88;2.17;;;;;;;17.51;50.19;101064.41;4936611;29;20047;-84
2023/05/19 08:12:17;;;;;;;5.47;1.90;;;;;;;17.62;49.39;101045.00;4940931;29;20039;-85
2023/05/19 08:15:06;;;;;;;6.40;2.03;;;;;;;17.79;48.74;101044.75;4973636;29;20043;-85
2023/05/19 08:17:43;;;;;;;7.63;2.15;;;;;;;17.59;48.94;101040.69;4966523;29;20047;-84
2023/05/19 08:20:11;;;;;;;4.75;1.80;;;;;;;17.49;49.95;101058.31;4948170;29;20043;-85
2023/05/19 08:22:40;;;;;;;4.95;1.95;;;;;;;17.51;48.48;101059.94;4953003;29;20082;-86
2023/05/19 08:25:09;;;;;;;4.93;1.80;;;;;;;17.43;49.12;101058.72;4954480;29;20047;-83
2023/05/19 08:27:44;;;;;;;6.38;1.75;;;;;;;17.32;49.77;101051.38;4949542;29;20043;-84
2023/05/19 08:30:16;;;;;;;8.90;2.20;;;;;;;17.46;49.94;101034.44;4949576;29;20102;-85
2023/05/19 08:32:49;;;;;;;3.75;2.03;;;;;;;17.79;49.92;101034.88;4949049;29;20051;-84
2023/05/19 08:35:19;;;;;;;4.38;2.00;;;;;;;17.98;49.26;101044.38;4948390;29;20106;-86
2023/05/19 08:37:50;;;;;;;5.43;1.80;;;;;;;18.06;47.90;101044.72;4971584;28;20059;-85
2023/05/19 08:40:23;;;;;;;4.07;1.80;;;;;;;17.79;48.20;100992.03;4984883;28;20057;-85
2023/05/19 08:42:54;;;;;;;4.07;1.70;;;;;;;18.42;47.54;101042.19;4956330;28;20054;-86
2023/05/19 08:45:33;;;;;;;9.15;1.60;;;;;;;18.49;47.18;100995.22;4969250;28;20058;-85
2023/05/19 08:48:28;;;;;;;8.88;1.67;;;;;;;18.78;44.05;101032.56;4970960;28;20086;-85
2023/05/19 08:51:10;;;;;;;5.22;1.60;;;;;;;18.70;43.88;101037.63;4968512;28;20054;-85
2023/05/19 08:54:07;;;;;;;5.75;1.50;;;;;;;18.69;44.63;101035.91;4971092;28;20129;-86
2023/05/19 08:56:40;;;;;;;4.60;1.90;;;;;;;18.62;43.54;101031.94;4988457;28;20070;-85
2023/05/19 08:59:09;;;;;;;6.77;1.90;;;;;;;18.45;44.42;101009.78;4968894;28;20047;-84
2023/05/19 09:09:05;;;;;;;3.90;1.30;;;;;;;18.32;43.92;101011.63;4936330;29;20035;-83
2023/05/19 09:11:36;;;;;;;4.50;1.80;;;;;;;18.18;44.79;101014.41;4912694;29;20108;-85
2023/05/19 09:19:22;;;;;;;2.85;1.30;;;;;;;17.72;44.81;101003.28;4991448;28;20090;-84
2023/05/19 09:25:35;;;;;;;4.82;1.30;;;;;;;17.76;43.04;101000.28;4994070;28;20129;-83
2023/05/19 09:28:13;;;;;;;3.80;1.33;;;;;;;17.72;44.10;100979.16;4979962;28;20114;-84
2023/05/19 09:31:49;;;;;;;6.82;1.65;;;;;;;17.93;43.82;101000.97;4978553;28;20043;-84
2023/05/19 09:34:56;;;;;;;6.10;1.63;;;;;;;18.12;42.69;100993.38;4998318;28;20079;-84
2023/05/19 09:37:57;;;;;;;4.68;1.50;;;;;;;18.21;41.19;100992.75;4977366;28;20066;-83
2023/05/19 09:41:30;;;;;;;3.53;1.20;;;;;;;18.15;41.45;100993.16;4898164;29;20042;-86
2023/05/19 09:43:58;;;;;;;5.30;1.40;;;;;;;18.17;41.66;100967.13;4920565;29;20054;-85
2023/05/19 09:46:27;;;;;;;4.43;1.60;;;;;;;18.29;39.84;100985.00;4932003;29;20047;-85
2023/05/19 09:48:58;;;;;;;3.15;1.58;;;;;;;18.20;40.28;100969.59;4966553;29;20106;-84
2023/05/19 09:51:33;;;;;;;4.40;1.30;;;;;;;17.96;38.86;100939.09;4938480;29;20139;-84
2023/05/19 09:55:07;;;;;;;6.38;1.50;;;;;;;18.47;39.83;100974.81;5103657;27;20765;-84
2023/05/19 09:57:49;;;;;;;5.20;1.77;;;;;;;18.59;40.00;100965.94;5088812;28;20082;-83
2023/05/19 10:00:20;;;;;;;3.53;1.42;;;;;;;18.74;40.48;100970.22;5100975;28;20489;-85
2023/05/19 10:03:08;;;;;;;4.47;1.75;;;;;;;18.90;41.69;100948.50;5087981;28;20079;-85
2023/05/19 10:06:14;;;;;;;3.47;1.50;;;;;;;19.19;39.58;100947.22;5102988;28;20048;-85
2023/05/19 10:08:45;;;;;;;5.63;1.52;;;;;;;19.31;39.21;100920.44;5100362;28;20067;-85
2023/05/19 10:11:21;;;;;;;4.95;1.50;;;;;;;19.66;38.40;100947.34;5102990;28;20048;-84
2023/05/19 10:14:04;;;;;;;4.28;1.40;;;;;;;19.52;38.82;100926.88;5084554;28;20040;-82
2023/05/19 10:16:40;;;;;;;5.70;1.40;;;;;;;19.73;37.99;100936.00;5102407;28;20040;-83
2023/05/19 10:19:14;;;;;;;6.60;1.20;;;;;;;19.77;36.75;100955.44;5102650;28;20044;-84
2023/05/19 10:21:51;;;;;;;3.15;1.33;;;;;;;19.41;34.88;100949.16;5111872;28;20032;-83
2023/05/19 10:24:20;;;;;;;5.20;1.73;;;;;;;19.26;35.82;100929.69;5106641;28;20071;-84
2023/05/19 10:27:13;;;;;;;5.15;1.38;;;;;;;19.71;35.96;100959.44;5092533;28;20091;-83
2023/05/19 10:30:15;;;;;;;3.17;1.30;;;;;;;19.66;34.26;100926.72;5099776;28;20051;-85
2023/05/19 10:32:53;;;;;;;3.13;1.30;;;;;;;19.82;33.48;100956.81;5080852;28;20093;-84
2023/05/19 10:35:47;;;;;;;4.32;1.50;;;;;;;19.83;33.94;100945.06;5044296;28;20064;-84
2023/05/19 10:38:26;;;;;;;5.10;1.38;;;;;;;19.57;33.99;100930.09;5043346;28;20045;-83
2023/05/19 10:41:15;;;;;;;3.42;1.55;;;;;;;19.37;35.16;100928.00;5041900;28;20051;-84
2023/05/19 10:44:12;;;;;;;3.70;1.60;;;;;;;19.38;35.61;100921.66;5042575;28;20084;-85
2023/05/19 10:46:53;;;;;;;3.72;1.65;;;;;;;19.59;35.72;100947.81;5040741;28;20159;-85
2023/05/19 10:49:37;;;;;;;3.30;1.40;;;;;;;19.40;36.99;100920.59;5041710;28;20051;-83
2023/05/19 10:52:24;;;;;;;3.50;1.58;;;;;;;19.56;37.37;100931.06;5030436;28;20049;-84
2023/05/19 10:54:53;;;;;;;3.92;1.50;;;;;;;19.40;37.43;100912.53;5057592;28;20068;-83
2023/05/19 10:57:30;;;;;;;4.35;1.50;;;;;;;19.34;36.89;100915.69;5057101;28;20115;-85
2023/05/19 11:00:30;;;;;;;3.38;1.40;;;;;;;19.08;37.31;100896.13;5036199;28;20255;-84
2023/05/19 11:03:14;;;;;;;4.53;1.50;;;;;;;19.11;37.51;100922.75;5060981;28;20052;-84
2023/05/19 11:05:49;;;;;;;2.03;1.40;;;;;;;19.13;38.64;100904.72;5040615;28;20123;-84
2023/05/19 11:08:32;;;;;;;5.03;1.60;;;;;;;19.33;37.93;100918.50;5089661;28;20071;-83
2023/05/19 11:12:11;;;;;;;4.28;1.73;;;;;;;19.27;37.95;100909.91;5089561;28;20064;-86
2023/05/19 11:15:09;;;;;;;3.85;1.67;;;;;;;19.61;37.72;100926.19;5077248;28;20071;-85
2023/05/19 11:18:00;;;;;;;6.57;1.90;;;;;;;19.79;37.06;100894.38;5077887;28;20117;-84
2023/05/19 11:20:41;;;;;;;4.68;1.83;;;;;;;20.00;37.55;100887.31;5086573;28;20056;-85
2023/05/19 11:23:40;;;;;;;3.38;1.48;;;;;;;20.12;37.06;100928.53;5086450;28;20054;-86
2023/05/19 11:26:41;;;;;;;3.17;1.50;;;;;;;19.75;37.73;100899.13;5088262;28;20128;-85
2023/05/19 11:29:51;;;;;;;4.47;1.60;;;;;;;19.87;38.11;100914.28;5031201;28;20132;-84
2023/05/19 11:32:37;;;;;;;3.47;1.60;;;;;;;19.92;37.75;100901.38;5009818;28;20451;-84
2023/05/19 11:35:17;;;;;;;3.72;1.58;;;;;;;19.93;38.27;100907.59;5007691;28;20108;-84
2023/05/19 11:38:39;;;;;;;5.15;1.65;;;;;;;19.99;38.48;100909.78;4970035;28;20042;-83
2023/05/19 11:41:50;;;;;;;8.55;1.50;;;;;;;20.05;38.82;100895.88;4968802;28;20142;-83
2023/05/19 11:45:10;;;;;;;5.00;1.40;;;;;;;20.16;38.27;100893.19;5007042;28;20077;-85
2023/05/19 11:48:04;;;;;;;5.50;1.60;;;;;;;20.18;38.41;100883.16;5009040;28;20029;-84
2023/05/19 11:50:42;;;;;;;5.72;1.98;;;;;;;19.99;38.57;100863.25;5010722;28;20077;-84
2023/05/19 11:53:48;;;;;;;3.97;1.67;;;;;;;20.08;39.00;100878.66;4962867;28;20049;-85
2023/05/19 12:01:11;;;;;;;4.32;1.88;;;;;;;20.38;38.68;100881.63;4966054;28;20054;-83
2023/05/19 12:08:09;;;;;;;4.43;1.83;;;;;;;19.81;38.94;100844.91;5030174;28;20040;-83
2023/05/19 12:10:52;;;;;;;3.05;1.88;;;;;;;19.88;39.51;100848.81;5005643;28;20049;-83
2023/05/19 12:13:24;;;;;;;5.20;2.10;;;;;;;20.00;39.21;100860.44;5064323;28;20045;-84
2023/05/19 12:16:02;;;;;;;6.00;1.65;;;;;;;20.27;39.18;100834.06;5047186;28;20105;-83
2023/05/19 12:18:31;;;;;;;3.05;1.40;;;;;;;20.68;39.17;100867.53;5065547;28;20041;-86
2023/05/19 12:21:14;;;;;;;4.28;1.92;;;;;;;20.69;37.87;100873.75;5021963;28;20106;-85
2023/05/19 12:23:48;;;;;;;4.70;1.42;;;;;;;20.58;38.47;100872.81;5010903;28;20096;-85
2023/05/19 12:26:27;;;;;;;5.53;1.75;;;;;;;20.59;38.13;100877.22;5012211;28;20514;-85
2023/05/19 12:29:13;;;;;;;3.58;1.60;;;;;;;20.87;39.30;100866.88;5013444;28;20045;-85
2023/05/19 12:32:14;;;;;;;;;;;;;;;20.98;38.09;100862.31;5025359;28;20052;-85
2023/05/19 12:34:46;;;;;;;4.00;1.75;;;;;;;20.76;38.43;100858.84;5008481;28;19917;-86
2023/05/19 12:37:26;;;;;;;;;;;;;;;20.69;38.63;100869.22;5021757;28;20124;-86
2023/05/19 12:40:02;;;;;;;5.05;1.88;;;;;;;20.75;38.22;100868.75;5005689;28;19940;-84
2023/05/19 12:42:47;;;;;;;3.05;1.80;;;;;;;20.83;37.41;100865.41;5024136;28;20500;-84
2023/05/19 12:45:53;;;;;;;4.80;1.75;;;;;;;20.64;37.95;100829.25;5011910;28;20052;-84
2023/05/19 12:48:28;;;;;;;3.67;1.60;;;;;;;20.93;37.99;100852.91;5009299;28;20053;-84
2023/05/19 12:51:29;;;;;;;5.07;1.80;;;;;;;21.19;38.78;100861.50;5008760;28;20503;-84
2023/05/19 12:54:07;;;;;;;2.42;1.33;;;;;;;21.37;37.42;100842.97;5061984;28;20056;-84
2023/05/19 12:56:44;;;;;;;4.70;2.00;;;;;;;21.35;37.82;100840.41;5092513;28;20032;-84
2023/05/19 12:59:32;;;;;;;3.60;1.30;;;;;;;21.50;37.47;100854.41;5097669;28;20055;-82
2023/05/19 13:02:16;;;;;;;2.72;1.50;;;;;;;21.43;37.56;100848.69;5096364;28;20127;-84
2023/05/19 13:04:44;;;;;;;3.33;1.80;;;;;;;21.26;37.47;100825.00;5084055;28;20041;-84